Time;durP1;ratioP1;P1;durP2;ratioP2;P2;SDS_P1;SDS_P2;PMS_P1;PMS_P2;Temp;Humidity;BMP_temperature;BMP_pressure;BME280_temperature;BME280_humidity;BME280_pressure;Samples;Min_cycle;Max_cycle;Signal;HPM_P1;HPM_P2
2022/08/26 00:01:57;;;;;;;20.58;9.77;;;;;;;;;;5039347;28;20059;-69
2022/08/26 00:04:23;;;;;;;18.67;9.63;;;;;;;;;;5039739;28;20243;-69
2022/08/26 00:06:49;;;;;;;25.45;9.43;;;;;;;;;;5039429;28;20053;-69
2022/08/26 00:09:15;;;;;;;15.68;8.73;;;;;;;;;;5039643;28;20049;-69
2022/08/26 00:11:40;;;;;;;16.23;8.98;;;;;;;;;;5039543;28;20040;-70
2022/08/26 00:14:06;;;;;;;17.92;8.95;;;;;;;;;;5039710;28;20053;-69
2022/08/26 00:16:31;;;;;;;14.30;8.90;;;;;;;;;;5040230;28;20044;-69
2022/08/26 00:18:58;;;;;;;19.38;9.40;;;;;;;;;;5038568;28;20049;-69
2022/08/26 00:21:23;;;;;;;14.73;8.70;;;;;;;;;;5039727;28;20048;-69
2022/08/26 00:23:49;;;;;;;13.48;9.05;;;;;;;;;;5038982;28;20041;-69
2022/08/26 00:26:14;;;;;;;14.85;8.13;;;;;;;;;;5039853;28;20110;-69
2022/08/26 00:28:40;;;;;;;15.30;9.32;;;;;;;;;;5039260;28;20090;-69
2022/08/26 00:31:06;;;;;;;12.55;8.85;;;;;;;;;;5039286;28;20079;-69
2022/08/26 00:33:31;;;;;;;17.17;8.30;;;;;;;;;;5039743;28;20403;-69
2022/08/26 00:35:57;;;;;;;16.05;9.45;;;;;;;;;;5039069;28;20418;-69
2022/08/26 00:38:23;;;;;;;15.10;10.00;;;;;;;;;;5041243;28;20080;-70
2022/08/26 00:40:52;;;;;;;16.33;10.50;;;;;;;;;;5042293;28;20124;-69
2022/08/26 00:43:19;;;;;;;16.60;10.60;;;;;;;;;;5058320;28;20053;-70
2022/08/26 00:45:48;;;;;;;18.50;10.45;;;;;;;;;;5042780;28;20055;-70
2022/08/26 00:48:16;;;;;;;16.63;10.07;;;;;;;;;;5043346;28;20049;-69
2022/08/26 00:50:51;;;;;;;18.45;10.23;;;;;;;;;;5042894;28;20053;-69
2022/08/26 00:53:22;;;;;;;17.58;9.63;;;;;;;;;;5043276;28;20045;-69
2022/08/26 00:56:02;;;;;;;19.67;10.32;;;;;;;;;;5042438;28;20430;-70
2022/08/26 00:58:31;;;;;;;16.48;9.52;;;;;;;;;;5043170;28;20045;-69
2022/08/26 01:00:56;;;;;;;18.92;9.55;;;;;;;;;;5042249;28;20575;-69
2022/08/26 01:03:24;;;;;;;27.90;10.30;;;;;;;;;;5043071;28;20052;-69
2022/08/26 01:05:54;;;;;;;16.00;10.32;;;;;;;;;;5042220;28;20462;-69
2022/08/26 01:08:20;;;;;;;18.38;10.60;;;;;;;;;;5042929;28;20049;-69
2022/08/26 01:10:46;;;;;;;23.35;11.50;;;;;;;;;;5043085;28;20106;-69
2022/08/26 01:13:11;;;;;;;17.92;11.82;;;;;;;;;;5042254;28;20053;-69
2022/08/26 01:15:44;;;;;;;21.60;11.30;;;;;;;;;;5042648;28;20122;-69
2022/08/26 01:18:12;;;;;;;17.23;10.90;;;;;;;;;;5042318;28;20533;-69
2022/08/26 01:20:46;;;;;;;19.48;11.77;;;;;;;;;;5042723;28;20051;-69
2022/08/26 01:23:13;;;;;;;23.10;11.52;;;;;;;;;;5041684;28;20047;-69
2022/08/26 01:25:42;;;;;;;19.67;11.20;;;;;;;;;;5042256;28;20830;-69
2022/08/26 01:28:14;;;;;;;15.35;10.48;;;;;;;;;;5042252;28;20613;-69
2022/08/26 01:30:40;;;;;;;16.15;9.77;;;;;;;;;;5042593;28;20136;-69
2022/08/26 01:33:11;;;;;;;17.95;10.95;;;;;;;;;;5042228;28;20053;-69
2022/08/26 01:35:37;;;;;;;20.55;12.10;;;;;;;;;;5038357;28;20045;-69
2022/08/26 01:38:03;;;;;;;15.70;11.52;;;;;;;;;;5041770;28;20053;-69
2022/08/26 01:40:35;;;;;;;20.70;11.32;;;;;;;;;;5041887;28;20111;-70
2022/08/26 01:43:02;;;;;;;18.15;11.20;;;;;;;;;;5042336;28;20048;-70
2022/08/26 01:45:29;;;;;;;16.77;11.13;;;;;;;;;;5041199;28;20098;-70
2022/08/26 01:47:58;;;;;;;15.30;10.50;;;;;;;;;;5041653;28;20068;-70
2022/08/26 01:50:28;;;;;;;17.17;10.82;;;;;;;;;;5042318;28;20049;-69
2022/08/26 01:52:55;;;;;;;20.48;11.27;;;;;;;;;;5042212;28;20049;-69
2022/08/26 01:55:21;;;;;;;20.92;11.50;;;;;;;;;;5041039;28;20106;-69
2022/08/26 01:57:50;;;;;;;19.65;11.38;;;;;;;;;;5041861;28;20128;-70
2022/08/26 02:00:16;;;;;;;16.23;12.05;;;;;;;;;;5042111;28;20129;-70
2022/08/26 02:02:45;;;;;;;22.55;12.05;;;;;;;;;;5042009;28;20108;-69
2022/08/26 02:05:15;;;;;;;21.10;12.10;;;;;;;;;;5041587;28;20135;-70
2022/08/26 02:07:42;;;;;;;19.42;12.07;;;;;;;;;;5040699;28;20419;-73
2022/08/26 02:10:08;;;;;;;24.90;12.57;;;;;;;;;;5040400;28;20048;-69
2022/08/26 02:12:34;;;;;;;23.65;13.73;;;;;;;;;;5040844;28;20051;-70
2022/08/26 02:15:02;;;;;;;20.17;12.25;;;;;;;;;;5041552;28;20906;-70
2022/08/26 02:17:37;;;;;;;18.42;11.43;;;;;;;;;;5041147;28;20528;-70
2022/08/26 02:20:04;;;;;;;20.73;11.55;;;;;;;;;;5040830;28;20043;-70
2022/08/26 02:22:29;;;;;;;18.42;11.50;;;;;;;;;;5040339;28;20068;-69
2022/08/26 02:24:58;;;;;;;16.83;11.48;;;;;;;;;;5041548;28;20499;-69
2022/08/26 02:27:29;;;;;;;18.52;10.98;;;;;;;;;;5041695;28;20049;-70
2022/08/26 02:30:01;;;;;;;21.38;11.68;;;;;;;;;;5040350;28;20049;-70
2022/08/26 02:32:27;;;;;;;16.75;12.00;;;;;;;;;;5041223;28;20051;-69
2022/08/26 02:34:52;;;;;;;20.80;12.30;;;;;;;;;;5040943;28;20061;-69
2022/08/26 02:37:18;;;;;;;23.35;11.70;;;;;;;;;;5041470;28;21069;-70
2022/08/26 02:39:44;;;;;;;22.23;13.05;;;;;;;;;;5039773;28;20048;-70
2022/08/26 02:42:09;;;;;;;22.58;12.75;;;;;;;;;;5041255;28;20134;-69
2022/08/26 02:44:35;;;;;;;21.40;12.77;;;;;;;;;;5041017;28;20136;-70
2022/08/26 02:47:01;;;;;;;25.38;12.95;;;;;;;;;;5041139;28;20051;-69
2022/08/26 02:49:29;;;;;;;15.57;12.05;;;;;;;;;;5041244;28;20045;-70
2022/08/26 02:51:54;;;;;;;18.55;13.40;;;;;;;;;;5040038;28;20053;-69
2022/08/26 02:54:20;;;;;;;23.38;13.10;;;;;;;;;;5040605;28;20057;-69
2022/08/26 02:56:46;;;;;;;24.88;13.38;;;;;;;;;;5040979;28;20127;-69
2022/08/26 02:59:11;;;;;;;21.40;12.25;;;;;;;;;;5041020;28;20051;-68
2022/08/26 03:01:39;;;;;;;19.27;12.60;;;;;;;;;;5039537;28;20049;-70
2022/08/26 03:04:07;;;;;;;25.02;12.88;;;;;;;;;;5039952;28;20411;-69
2022/08/26 03:06:32;;;;;;;21.58;11.93;;;;;;;;;;5040632;28;20147;-68
2022/08/26 03:08:58;;;;;;;19.83;12.20;;;;;;;;;;5040845;28;20140;-69
2022/08/26 03:11:23;;;;;;;21.17;11.80;;;;;;;;;;5039892;28;20072;-70
2022/08/26 03:13:49;;;;;;;16.23;11.52;;;;;;;;;;5039331;28;20521;-69
2022/08/26 03:16:15;;;;;;;18.75;12.25;;;;;;;;;;5040534;28;20049;-68
2022/08/26 03:18:41;;;;;;;20.60;11.80;;;;;;;;;;5040736;28;20053;-68
2022/08/26 03:21:09;;;;;;;18.88;12.18;;;;;;;;;;5040375;28;20044;-69
2022/08/26 03:23:36;;;;;;;22.13;11.50;;;;;;;;;;5039583;28;20131;-69
2022/08/26 03:26:02;;;;;;;18.75;12.38;;;;;;;;;;5039800;28;20052;-68
2022/08/26 03:28:28;;;;;;;21.45;13.25;;;;;;;;;;5040412;28;20040;-69
2022/08/26 03:30:53;;;;;;;24.95;13.43;;;;;;;;;;5040087;28;20056;-68
2022/08/26 03:33:19;;;;;;;23.80;14.07;;;;;;;;;;5040310;28;20052;-68
2022/08/26 03:35:46;;;;;;;24.13;13.50;;;;;;;;;;5037607;28;20049;-68
2022/08/26 03:38:13;;;;;;;22.27;13.15;;;;;;;;;;5038718;28;20053;-68
2022/08/26 03:40:39;;;;;;;20.27;12.88;;;;;;;;;;5040035;28;20045;-68
2022/08/26 03:43:06;;;;;;;20.58;13.07;;;;;;;;;;5039554;28;20063;-68
2022/08/26 03:45:32;;;;;;;22.88;13.65;;;;;;;;;;5037788;28;20045;-68
2022/08/26 03:47:58;;;;;;;29.48;13.48;;;;;;;;;;5039637;28;20049;-69
2022/08/26 03:50:24;;;;;;;27.23;15.23;;;;;;;;;;5040288;28;20453;-68
2022/08/26 03:52:52;;;;;;;34.92;17.73;;;;;;;;;;5040153;28;20037;-68
2022/08/26 03:55:19;;;;;;;32.22;16.40;;;;;;;;;;5040056;28;20048;-68
2022/08/26 03:57:45;;;;;;;25.63;15.95;;;;;;;;;;5038796;28;20098;-69
2022/08/26 04:00:14;;;;;;;20.83;13.73;;;;;;;;;;5039712;28;20049;-68
2022/08/26 04:02:42;;;;;;;23.38;12.63;;;;;;;;;;5040194;28;20389;-69
2022/08/26 04:05:09;;;;;;;24.45;12.73;;;;;;;;;;5039831;28;20064;-71
2022/08/26 04:07:35;;;;;;;15.43;11.88;;;;;;;;;;5039401;28;20049;-68
2022/08/26 04:10:00;;;;;;;19.80;11.73;;;;;;;;;;5039185;28;20498;-69
2022/08/26 04:12:26;;;;;;;20.08;13.40;;;;;;;;;;5039913;28;20566;-69
2022/08/26 04:14:51;;;;;;;21.02;12.73;;;;;;;;;;5043730;28;20114;-71
2022/08/26 04:17:18;;;;;;;20.05;12.25;;;;;;;;;;5044249;28;20040;-69
2022/08/26 04:19:44;;;;;;;19.73;12.18;;;;;;;;;;5042437;28;20076;-70
2022/08/26 04:22:10;;;;;;;19.55;12.20;;;;;;;;;;5043882;28;20135;-69
2022/08/26 04:24:38;;;;;;;19.30;12.50;;;;;;;;;;5043608;28;20053;-68
2022/08/26 04:27:05;;;;;;;21.67;12.00;;;;;;;;;;5043698;28;20045;-68
2022/08/26 04:29:30;;;;;;;22.35;13.05;;;;;;;;;;5042941;28;20052;-68
2022/08/26 04:31:56;;;;;;;19.35;13.00;;;;;;;;;;5042932;28;20057;-68
2022/08/26 04:34:26;;;;;;;17.35;12.55;;;;;;;;;;5043476;28;20072;-67
2022/08/26 04:36:51;;;;;;;21.25;13.60;;;;;;;;;;5043862;28;20450;-68
2022/08/26 04:39:19;;;;;;;17.92;12.75;;;;;;;;;;5042692;28;20049;-69
2022/08/26 04:41:45;;;;;;;25.38;13.50;;;;;;;;;;5042033;28;20044;-68
2022/08/26 04:44:12;;;;;;;25.90;13.38;;;;;;;;;;5043146;28;20087;-68
2022/08/26 04:46:38;;;;;;;19.35;13.10;;;;;;;;;;5043529;28;20041;-68
2022/08/26 04:49:05;;;;;;;23.27;13.35;;;;;;;;;;5043433;28;20418;-68
2022/08/26 04:51:32;;;;;;;27.77;14.43;;;;;;;;;;5042260;28;20472;-68
2022/08/26 04:53:58;;;;;;;25.75;15.10;;;;;;;;;;5042244;28;20124;-68
2022/08/26 04:56:26;;;;;;;35.28;14.60;;;;;;;;;;5043112;28;20040;-68
2022/08/26 04:58:51;;;;;;;21.90;13.75;;;;;;;;;;5043358;28;20041;-68
2022/08/26 05:01:17;;;;;;;26.10;13.52;;;;;;;;;;5042900;28;20053;-68
2022/08/26 05:03:43;;;;;;;22.55;13.38;;;;;;;;;;5041978;28;20513;-69
2022/08/26 05:06:11;;;;;;;21.60;14.55;;;;;;;;;;5042764;28;20053;-67
2022/08/26 05:08:37;;;;;;;27.95;14.30;;;;;;;;;;5043027;28;20049;-68
2022/08/26 05:11:04;;;;;;;19.08;14.15;;;;;;;;;;5043459;28;20520;-68
2022/08/26 05:13:30;;;;;;;21.15;14.52;;;;;;;;;;5041901;28;20084;-68
2022/08/26 05:15:55;;;;;;;21.83;14.38;;;;;;;;;;5042396;28;20076;-70
2022/08/26 05:18:23;;;;;;;28.23;14.10;;;;;;;;;;5042073;28;20048;-68
2022/08/26 05:20:52;;;;;;;23.63;14.73;;;;;;;;;;5043275;28;20037;-68
2022/08/26 05:23:21;;;;;;;23.98;15.02;;;;;;;;;;5042494;28;20045;-68
2022/08/26 05:25:47;;;;;;;25.60;14.20;;;;;;;;;;5040757;28;20477;-67
2022/08/26 05:28:15;;;;;;;22.20;13.90;;;;;;;;;;5042768;28;20106;-67
2022/08/26 05:30:41;;;;;;;21.05;14.02;;;;;;;;;;5041038;28;20063;-69
2022/08/26 05:33:08;;;;;;;21.88;13.20;;;;;;;;;;5042821;28;20190;-68
2022/08/26 05:35:36;;;;;;;18.70;12.85;;;;;;;;;;5041473;28;20040;-68
2022/08/26 05:38:05;;;;;;;20.60;13.82;;;;;;;;;;5042202;28;20056;-68
2022/08/26 05:40:34;;;;;;;21.52;14.15;;;;;;;;;;5042303;28;20499;-68
2022/08/26 05:42:59;;;;;;;23.85;14.95;;;;;;;;;;5042274;28;20048;-69
2022/08/26 05:45:25;;;;;;;23.30;15.02;;;;;;;;;;5039777;28;20052;-69
2022/08/26 05:47:51;;;;;;;18.50;13.32;;;;;;;;;;5039391;28;20584;-69
2022/08/26 05:50:20;;;;;;;25.65;15.35;;;;;;;;;;5040471;28;20055;-69
2022/08/26 05:52:48;;;;;;;24.17;14.73;;;;;;;;;;5041313;28;20075;-69
2022/08/26 05:55:13;;;;;;;21.65;14.65;;;;;;;;;;5040474;28;20124;-69
2022/08/26 05:57:39;;;;;;;23.90;13.23;;;;;;;;;;5039812;28;20623;-69
2022/08/26 06:00:05;;;;;;;23.77;13.45;;;;;;;;;;5039140;28;20045;-70
2022/08/26 06:02:38;;;;;;;19.90;12.23;;;;;;;;;;5041324;28;20091;-70
2022/08/26 06:05:04;;;;;;;20.77;12.20;;;;;;;;;;5041619;28;20052;-70
2022/08/26 06:10:14;;;;;;;19.55;12.73;;;;;;;;;;5038448;28;20060;-70
2022/08/26 06:12:40;;;;;;;19.05;10.88;;;;;;;;;;5042012;28;20048;-70
2022/08/26 06:15:06;;;;;;;18.52;11.57;;;;;;;;;;5041758;28;20081;-69
2022/08/26 06:17:31;;;;;;;24.25;10.45;;;;;;;;;;5041326;28;20128;-70
2022/08/26 06:19:57;;;;;;;23.75;8.95;;;;;;;;;;5040491;28;20076;-70
2022/08/26 06:27:52;;;;;;;21.58;12.70;;;;;;;;;;5040537;28;20064;-70
2022/08/26 06:30:18;;;;;;;25.95;13.10;;;;;;;;;;5036484;28;20541;-71
2022/08/26 06:32:44;;;;;;;32.22;15.85;;;;;;;;;;5040083;28;20510;-70
2022/08/26 06:35:10;;;;;;;22.70;15.23;;;;;;;;;;5040322;28;20048;-70
2022/08/26 06:37:36;;;;;;;23.40;14.65;;;;;;;;;;5041220;28;20689;-69
2022/08/26 06:40:02;;;;;;;30.00;14.60;;;;;;;;;;5040526;28;20057;-69
2022/08/26 06:42:27;;;;;;;25.65;15.50;;;;;;;;;;5040317;28;20053;-69
2022/08/26 06:44:53;;;;;;;24.65;14.23;;;;;;;;;;5040656;28;20499;-69
2022/08/26 06:47:19;;;;;;;24.58;15.20;;;;;;;;;;5041481;28;20052;-69
2022/08/26 06:49:44;;;;;;;20.00;13.55;;;;;;;;;;5040568;28;20084;-70
2022/08/26 06:52:10;;;;;;;23.25;13.27;;;;;;;;;;5040442;28;20136;-69
2022/08/26 06:54:40;;;;;;;21.63;12.88;;;;;;;;;;5040600;28;20044;-69
2022/08/26 06:57:05;;;;;;;21.02;14.00;;;;;;;;;;5039713;28;20045;-69
2022/08/26 06:59:32;;;;;;;19.23;12.73;;;;;;;;;;5040939;28;20044;-69
2022/08/26 07:01:57;;;;;;;21.60;13.13;;;;;;;;;;5040157;28;20045;-69
2022/08/26 07:04:23;;;;;;;21.98;13.50;;;;;;;;;;5039388;28;20482;-69
2022/08/26 07:06:51;;;;;;;21.20;12.88;;;;;;;;;;5039041;28;20040;-72
2022/08/26 07:09:16;;;;;;;21.75;13.50;;;;;;;;;;5039138;28;20048;-72
2022/08/26 07:11:43;;;;;;;23.88;11.93;;;;;;;;;;5040398;28;20055;-70
2022/08/26 07:14:09;;;;;;;18.17;11.05;;;;;;;;;;5039196;28;20072;-70
2022/08/26 07:16:34;;;;;;;23.20;11.40;;;;;;;;;;5038962;28;20072;-69
2022/08/26 07:19:01;;;;;;;20.45;11.45;;;;;;;;;;5040644;28;20054;-70
2022/08/26 07:21:26;;;;;;;14.45;10.73;;;;;;;;;;5040157;28;21063;-69
2022/08/26 07:23:53;;;;;;;11.77;9.02;;;;;;;;;;5040335;28;20045;-69
2022/08/26 07:26:22;;;;;;;12.85;8.32;;;;;;;;;;5039315;28;20044;-69
2022/08/26 07:28:51;;;;;;;14.82;7.60;;;;;;;;;;5040751;28;20143;-70
2022/08/26 07:31:19;;;;;;;21.30;8.23;;;;;;;;;;5040460;28;20419;-70
2022/08/26 07:33:45;;;;;;;13.95;9.00;;;;;;;;;;5040419;28;21034;-72
2022/08/26 07:36:12;;;;;;;14.90;8.88;;;;;;;;;;5039578;28;20917;-70
2022/08/26 07:38:39;;;;;;;10.07;8.60;;;;;;;;;;5040439;28;20052;-69
2022/08/26 07:41:07;;;;;;;11.15;7.40;;;;;;;;;;5040565;28;20049;-70
2022/08/26 07:43:34;;;;;;;14.63;8.25;;;;;;;;;;5040412;28;20105;-69
2022/08/26 07:45:59;;;;;;;11.02;7.72;;;;;;;;;;5039467;28;20136;-69
2022/08/26 07:48:25;;;;;;;14.32;7.00;;;;;;;;;;5039394;28;20147;-70
2022/08/26 07:50:52;;;;;;;8.95;6.30;;;;;;;;;;5040191;28;20048;-70
2022/08/26 07:53:18;;;;;;;15.52;7.00;;;;;;;;;;5040280;28;20048;-69
2022/08/26 07:55:44;;;;;;;10.02;6.63;;;;;;;;;;5040376;28;20048;-69
2022/08/26 07:58:09;;;;;;;15.95;6.72;;;;;;;;;;5039258;28;20115;-70
2022/08/26 08:00:34;;;;;;;9.10;6.50;;;;;;;;;;5040060;28;20048;-69
2022/08/26 08:03:02;;;;;;;11.93;6.30;;;;;;;;;;5040115;28;20075;-69
2022/08/26 08:05:31;;;;;;;9.05;6.15;;;;;;;;;;5040208;28;20053;-70
2022/08/26 08:07:57;;;;;;;11.23;6.85;;;;;;;;;;5039674;28;20132;-70
2022/08/26 08:10:24;;;;;;;11.85;6.88;;;;;;;;;;5039059;28;20044;-70
2022/08/26 08:12:50;;;;;;;13.55;7.07;;;;;;;;;;5040100;28;20779;-70
2022/08/26 08:15:18;;;;;;;9.27;6.45;;;;;;;;;;5040216;28;20072;-70
2022/08/26 08:17:44;;;;;;;11.43;6.53;;;;;;;;;;5040246;28;20087;-70
2022/08/26 08:20:13;;;;;;;12.38;6.45;;;;;;;;;;5038444;28;20045;-70
2022/08/26 08:22:39;;;;;;;19.95;6.80;;;;;;;;;;5040007;28;20056;-70
2022/08/26 08:25:06;;;;;;;13.93;7.10;;;;;;;;;;5038619;28;20053;-70
2022/08/26 08:27:36;;;;;;;9.00;6.45;;;;;;;;;;5040096;28;20449;-70
2022/08/26 08:30:04;;;;;;;9.05;6.05;;;;;;;;;;5039493;28;20139;-70
2022/08/26 08:32:30;;;;;;;10.35;6.60;;;;;;;;;;5038866;28;20558;-70
2022/08/26 08:34:57;;;;;;;13.80;5.97;;;;;;;;;;5039989;28;20136;-69
2022/08/26 08:37:23;;;;;;;12.50;6.85;;;;;;;;;;5039735;28;20156;-70
2022/08/26 08:39:48;;;;;;;8.02;5.80;;;;;;;;;;5039412;28;20037;-69
2022/08/26 08:42:38;;;;;;;9.75;6.78;;;;;;;;;;5039006;28;20053;-69
2022/08/26 08:45:10;;;;;;;10.23;6.60;;;;;;;;;;5039435;28;20044;-70
2022/08/26 08:47:35;;;;;;;;;;;;;;;;;;5039950;28;20037;-69
2022/08/26 08:50:18;;;;;;;10.38;6.70;;;;;;;;;;5039164;28;19997;-69
2022/08/26 08:52:50;;;;;;;17.48;6.25;;;;;;;;;;5039544;28;20049;-70
2022/08/26 08:55:16;;;;;;;10.55;6.30;;;;;;;;;;5038948;28;20048;-70
2022/08/26 08:57:48;;;;;;;12.70;6.03;;;;;;;;;;5039516;28;20114;-70
2022/08/26 09:00:18;;;;;;;9.30;6.13;;;;;;;;;;5041870;28;20140;-70
2022/08/26 09:02:55;;;;;;;9.70;5.45;;;;;;;;;;5043241;28;20037;-70
2022/08/26 09:05:23;;;;;;;6.97;5.95;;;;;;;;;;5042148;28;20064;-70
2022/08/26 09:07:54;;;;;;;10.27;6.05;;;;;;;;;;5042673;28;20049;-71
2022/08/26 09:10:39;;;;;;;12.38;6.47;;;;;;;;;;5043074;28;20040;-70
2022/08/26 09:13:14;;;;;;;7.05;5.63;;;;;;;;;;5043295;28;20053;-70
2022/08/26 09:16:02;;;;;;;12.13;6.35;;;;;;;;;;5041886;28;20490;-70
2022/08/26 09:18:53;;;;;;;11.68;5.57;;;;;;;;;;5012039;28;20071;-70
2022/08/26 09:21:22;;;;;;;7.75;5.45;;;;;;;;;;5043055;28;20049;-69
2022/08/26 09:23:48;;;;;;;7.95;5.55;;;;;;;;;;5042289;28;20159;-69
2022/08/26 09:26:21;;;;;;;8.98;5.47;;;;;;;;;;5042142;28;20049;-70
2022/08/26 09:29:01;;;;;;;10.70;5.50;;;;;;;;;;5041336;28;20487;-70
2022/08/26 09:31:33;;;;;;;11.20;5.05;;;;;;;;;;5042579;28;20359;-70
2022/08/26 09:34:24;;;;;;;12.43;5.63;;;;;;;;;;5042308;28;20056;-70
2022/08/26 09:36:54;;;;;;;;;;;;;;;;;;5043394;28;20048;-70
2022/08/26 09:39:32;;;;;;;10.27;4.93;;;;;;;;;;5041649;28;20386;-70
2022/08/26 09:42:09;;;;;;;8.82;5.15;;;;;;;;;;5042164;28;20055;-69
2022/08/26 09:44:55;;;;;;;7.03;4.80;;;;;;;;;;5042173;28;20144;-70
2022/08/26 09:47:26;;;;;;;8.20;5.35;;;;;;;;;;5042331;28;20414;-70
2022/08/26 09:49:58;;;;;;;10.88;5.35;;;;;;;;;;5040896;28;20049;-69
2022/08/26 09:52:26;;;;;;;9.82;5.80;;;;;;;;;;5042208;28;20136;-69
2022/08/26 09:55:04;;;;;;;7.80;5.78;;;;;;;;;;5042124;28;20044;-69
2022/08/26 09:57:33;;;;;;;12.35;5.72;;;;;;;;;;5042337;28;20063;-70
2022/08/26 10:00:00;;;;;;;11.35;6.05;;;;;;;;;;5040689;28;20527;-70
2022/08/26 10:02:31;;;;;;;10.00;5.75;;;;;;;;;;5041971;28;20099;-70
2022/08/26 10:04:58;;;;;;;;;;;;;;;;;;5042586;28;20106;-69
2022/08/26 10:07:40;;;;;;;12.02;5.97;;;;;;;;;;5042113;28;20741;-69
2022/08/26 10:10:18;;;;;;;11.05;5.88;;;;;;;;;;5040848;28;20068;-69
2022/08/26 10:12:52;;;;;;;10.30;6.00;;;;;;;;;;5041287;28;20131;-70
2022/08/26 10:15:19;;;;;;;11.07;6.15;;;;;;;;;;5041775;28;20040;-69
2022/08/26 10:17:52;;;;;;;8.45;5.80;;;;;;;;;;5041519;28;20059;-71
2022/08/26 10:20:33;;;;;;;8.25;5.57;;;;;;;;;;5042018;28;20124;-69
2022/08/26 10:23:14;;;;;;;11.70;5.70;;;;;;;;;;5040922;28;20056;-69
2022/08/26 10:25:47;;;;;;;8.75;5.47;;;;;;;;;;5041541;28;20423;-69
2022/08/26 10:28:35;;;;;;;14.82;5.82;;;;;;;;;;5041444;28;20048;-69
2022/08/26 10:31:47;;;;;;;8.55;5.85;;;;;;;;;;5041747;28;20128;-68
2022/08/26 10:34:15;;;;;;;10.02;5.53;;;;;;;;;;4998319;28;20053;-68
2022/08/26 10:36:58;;;;;;;7.28;5.22;;;;;;;;;;4999394;28;20462;-69
2022/08/26 10:39:35;;;;;;;9.63;5.40;;;;;;;;;;5015667;28;20839;-71
2022/08/26 10:42:07;;;;;;;10.70;5.43;;;;;;;;;;5041022;28;20132;-69
2022/08/26 10:44:36;;;;;;;11.02;5.22;;;;;;;;;;5040207;28;20053;-70
2022/08/26 10:47:23;;;;;;;10.80;5.07;;;;;;;;;;5040397;28;20469;-69
2022/08/26 10:49:51;;;;;;;11.57;5.22;;;;;;;;;;5040766;28;20048;-69
2022/08/26 10:52:24;;;;;;;18.33;5.80;;;;;;;;;;5039901;28;20045;-69
2022/08/26 10:55:04;;;;;;;16.50;5.40;;;;;;;;;;5040213;28;20079;-69
2022/08/26 10:57:45;;;;;;;19.33;5.35;;;;;;;;;;5041219;28;20098;-69
2022/08/26 11:03:37;;;;;;;9.82;4.97;;;;;;;;;;5041122;28;20181;-68
2022/08/26 11:06:18;;;;;;;10.25;4.55;;;;;;;;;;5038990;28;20870;-68
2022/08/26 11:08:53;;;;;;;9.15;4.05;;;;;;;;;;5040824;28;20131;-70
2022/08/26 11:11:40;;;;;;;10.93;4.10;;;;;;;;;;5040623;28;20088;-71
2022/08/26 11:14:07;;;;;;;12.07;3.78;;;;;;;;;;5040243;28;20140;-70
2022/08/26 11:16:39;;;;;;;11.95;3.15;;;;;;;;;;5040050;28;20194;-69
2022/08/26 11:19:08;;;;;;;12.90;3.17;;;;;;;;;;5040811;28;20608;-70
2022/08/26 11:22:07;;;;;;;12.80;3.33;;;;;;;;;;5040433;28;20107;-70
2022/08/26 11:25:01;;;;;;;10.15;3.42;;;;;;;;;;5052081;28;20064;-70
2022/08/26 11:27:35;;;;;;;7.22;2.88;;;;;;;;;;5040398;28;20773;-69
2022/08/26 11:30:04;;;;;;;8.55;3.17;;;;;;;;;;5039884;28;20132;-70
2022/08/26 11:32:32;;;;;;;7.78;3.08;;;;;;;;;;5040645;28;20049;-70
2022/08/26 11:35:24;;;;;;;10.13;3.25;;;;;;;;;;5040544;28;20041;-70
2022/08/26 11:37:56;;;;;;;9.07;3.05;;;;;;;;;;5030084;28;20044;-70
2022/08/26 11:40:31;;;;;;;18.48;3.20;;;;;;;;;;5039161;28;20877;-71
2022/08/26 11:43:01;;;;;;;14.98;3.78;;;;;;;;;;5040622;28;20053;-71
2022/08/26 11:45:33;;;;;;;12.83;3.07;;;;;;;;;;5040226;28;20045;-71
2022/08/26 11:48:17;;;;;;;11.65;2.70;;;;;;;;;;5040018;28;20140;-70
2022/08/26 11:50:58;;;;;;;10.68;3.10;;;;;;;;;;5039457;28;20059;-71
2022/08/26 11:53:24;;;;;;;12.50;3.78;;;;;;;;;;5040259;28;20053;-70
2022/08/26 11:55:52;;;;;;;7.68;2.83;;;;;;;;;;5039441;28;20044;-71
2022/08/26 11:58:20;;;;;;;8.98;3.30;;;;;;;;;;5040217;28;20048;-71
2022/08/26 12:01:01;;;;;;;14.10;3.13;;;;;;;;;;5039400;28;20045;-69
2022/08/26 12:03:48;;;;;;;8.68;2.88;;;;;;;;;;5039885;28;20045;-70
2022/08/26 12:06:16;;;;;;;7.13;2.80;;;;;;;;;;5039491;28;20076;-68
2022/08/26 12:08:43;;;;;;;8.68;3.15;;;;;;;;;;5040252;28;20045;-68
2022/08/26 12:11:21;;;;;;;6.13;3.30;;;;;;;;;;5039481;28;20605;-69
2022/08/26 12:14:02;;;;;;;14.35;3.70;;;;;;;;;;5039176;28;20048;-70
2022/08/26 12:16:31;;;;;;;10.73;3.50;;;;;;;;;;5039851;28;20053;-69
2022/08/26 12:18:57;;;;;;;12.43;3.50;;;;;;;;;;5039930;28;20139;-70
2022/08/26 12:21:28;;;;;;;10.18;3.63;;;;;;;;;;5040200;28;20143;-69
2022/08/26 12:23:58;;;;;;;18.33;3.53;;;;;;;;;;5038989;28;20056;-69
2022/08/26 12:26:33;;;;;;;15.50;3.33;;;;;;;;;;5039958;28;20053;-72
2022/08/26 12:29:06;;;;;;;8.63;3.42;;;;;;;;;;5040294;28;20044;-70
2022/08/26 12:31:40;;;;;;;8.75;3.17;;;;;;;;;;5039916;28;20130;-69
2022/08/26 12:34:09;;;;;;;10.02;3.42;;;;;;;;;;5039370;28;20583;-69
2022/08/26 12:36:55;;;;;;;11.15;3.88;;;;;;;;;;5043408;28;20486;-70
2022/08/26 12:39:33;;;;;;;9.68;4.15;;;;;;;;;;5043750;28;20415;-70
2022/08/26 12:42:01;;;;;;;12.68;3.80;;;;;;;;;;5043244;28;20087;-70
2022/08/26 12:44:43;;;;;;;9.43;3.63;;;;;;;;;;5042784;28;20099;-69
2022/08/26 12:47:32;;;;;;;5.47;3.53;;;;;;;;;;5043316;28;20199;-70
2022/08/26 12:50:19;;;;;;;14.68;3.65;;;;;;;;;;5043264;28;20068;-69
2022/08/26 12:53:09;;;;;;;11.15;3.15;;;;;;;;;;5043780;28;20750;-69
2022/08/26 12:55:40;;;;;;;7.00;3.28;;;;;;;;;;5042609;28;20091;-69
2022/08/26 12:58:38;;;;;;;10.25;3.70;;;;;;;;;;5043103;28;20049;-70
2022/08/26 13:01:03;;;;;;;10.00;3.00;;;;;;;;;;5043248;28;20530;-70
2022/08/26 13:03:44;;;;;;;8.98;4.00;;;;;;;;;;5043191;28;20044;-70
2022/08/26 13:06:21;;;;;;;12.90;3.45;;;;;;;;;;5041816;28;20053;-70
2022/08/26 13:08:53;;;;;;;10.18;4.05;;;;;;;;;;5043327;28;20056;-70
2022/08/26 13:11:23;;;;;;;7.90;3.70;;;;;;;;;;5042958;28;20052;-70
2022/08/26 13:13:52;;;;;;;7.90;3.78;;;;;;;;;;5042477;28;20094;-70
2022/08/26 13:16:22;;;;;;;12.63;3.75;;;;;;;;;;5042162;28;20045;-69
2022/08/26 13:19:09;;;;;;;7.38;3.47;;;;;;;;;;5042243;28;20044;-70
2022/08/26 13:21:46;;;;;;;8.48;3.63;;;;;;;;;;5042598;28;20055;-70
2022/08/26 13:24:19;;;;;;;9.93;3.85;;;;;;;;;;5042598;28;20218;-69
2022/08/26 13:26:47;;;;;;;10.85;3.80;;;;;;;;;;5042783;28;20041;-70
2022/08/26 13:29:14;;;;;;;4.97;3.60;;;;;;;;;;5042051;28;20057;-70
2022/08/26 13:31:43;;;;;;;9.10;3.30;;;;;;;;;;5042621;28;20422;-69
2022/08/26 13:34:10;;;;;;;13.80;3.75;;;;;;;;;;5042155;28;20545;-69
2022/08/26 13:36:35;;;;;;;12.02;3.63;;;;;;;;;;5042503;28;20041;-69
2022/08/26 13:39:03;;;;;;;8.60;3.40;;;;;;;;;;5043068;28;20103;-71
2022/08/26 13:41:30;;;;;;;9.23;4.05;;;;;;;;;;5041477;28;20142;-70
2022/08/26 13:43:57;;;;;;;10.77;4.30;;;;;;;;;;5041045;28;20056;-67
2022/08/26 13:46:24;;;;;;;5.55;3.50;;;;;;;;;;5042059;28;20059;-69
2022/08/26 13:48:50;;;;;;;6.05;3.20;;;;;;;;;;5042778;28;20053;-69
2022/08/26 13:51:17;;;;;;;7.55;3.90;;;;;;;;;;5041849;28;20122;-70
2022/08/26 13:53:43;;;;;;;8.93;3.40;;;;;;;;;;5042725;28;20196;-70
2022/08/26 13:56:08;;;;;;;12.85;3.17;;;;;;;;;;5041583;28;20045;-70
2022/08/26 13:58:34;;;;;;;7.05;3.00;;;;;;;;;;5042616;28;20076;-71
2022/08/26 14:00:59;;;;;;;7.13;2.63;;;;;;;;;;5042204;28;20087;-70
2022/08/26 14:03:24;;;;;;;6.57;3.35;;;;;;;;;;5041503;28;20045;-70
2022/08/26 14:05:52;;;;;;;7.88;3.13;;;;;;;;;;5041393;28;20045;-70
2022/08/26 14:08:17;;;;;;;5.13;3.20;;;;;;;;;;5042275;28;20068;-71
2022/08/26 14:10:43;;;;;;;5.75;3.63;;;;;;;;;;5042207;28;20407;-70
2022/08/26 14:13:08;;;;;;;5.35;3.38;;;;;;;;;;5041356;28;20042;-73
2022/08/26 14:15:36;;;;;;;6.13;3.60;;;;;;;;;;5041682;28;20493;-72
2022/08/26 14:18:03;;;;;;;7.95;3.33;;;;;;;;;;5041571;28;20053;-69
2022/08/26 14:20:30;;;;;;;9.82;3.63;;;;;;;;;;5042612;28;20080;-70
2022/08/26 14:22:56;;;;;;;11.25;3.72;;;;;;;;;;5042069;28;20048;-69
2022/08/26 14:25:22;;;;;;;6.10;3.63;;;;;;;;;;5041240;28;20053;-68
2022/08/26 14:27:49;;;;;;;7.28;3.70;;;;;;;;;;5040687;28;20059;-70
2022/08/26 14:30:16;;;;;;;4.97;2.97;;;;;;;;;;5041652;28;20052;-70
2022/08/26 14:32:48;;;;;;;9.57;3.55;;;;;;;;;;5041688;28;21136;-69
2022/08/26 14:35:17;;;;;;;9.25;3.55;;;;;;;;;;5035115;28;20049;-69
2022/08/26 14:37:42;;;;;;;7.22;3.55;;;;;;;;;;5037385;28;20045;-68
2022/08/26 14:40:09;;;;;;;5.60;3.33;;;;;;;;;;5038242;28;20099;-69
2022/08/26 14:42:34;;;;;;;7.13;3.33;;;;;;;;;;5037315;28;20037;-69
2022/08/26 14:45:03;;;;;;;7.43;3.35;;;;;;;;;;5037893;28;20762;-70
2022/08/26 14:47:29;;;;;;;6.75;3.10;;;;;;;;;;5036803;28;20479;-69
2022/08/26 14:49:54;;;;;;;7.95;3.20;;;;;;;;;;5039354;28;20111;-71
2022/08/26 14:52:20;;;;;;;7.63;3.35;;;;;;;;;;5039075;28;20060;-71
2022/08/26 14:54:45;;;;;;;5.82;3.63;;;;;;;;;;5038160;28;20065;-70